sensor_id;sensor_type;location;lat;lon;timestamp;P1;durP1;ratioP1;P2;durP2;ratioP2
23009;SDS011;11671;49.990;8.028;2023-05-10T00:00:10;458.45;;;434.55;;
23009;SDS011;11671;49.990;8.028;2023-05-10T00:02:37;471.52;;;446.60;;
23009;SDS011;11671;49.990;8.028;2023-05-10T00:07:28;492.77;;;466.52;;
23009;SDS011;11671;49.990;8.028;2023-05-10T00:12:19;534.03;;;504.73;;
23009;SDS011;11671;49.990;8.028;2023-05-10T00:17:10;488.25;;;462.38;;
23009;SDS011;11671;49.990;8.028;2023-05-10T00:22:01;512.40;;;484.73;;
23009;SDS011;11671;49.990;8.028;2023-05-10T00:24:28;522.97;;;494.40;;
23009;SDS011;11671;49.990;8.028;2023-05-10T00:29:19;518.50;;;490.45;;
23009;SDS011;11671;49.990;8.028;2023-05-10T00:31:44;426.63;;;404.90;;
23009;SDS011;11671;49.990;8.028;2023-05-10T00:34:10;438.85;;;416.30;;
23009;SDS011;11671;49.990;8.028;2023-05-10T00:39:01;477.58;;;452.38;;
23009;SDS011;11671;49.990;8.028;2023-05-10T00:41:28;519.95;;;490.92;;
23009;SDS011;11671;49.990;8.028;2023-05-10T00:43:56;524.80;;;496.00;;
23009;SDS011;11671;49.990;8.028;2023-05-10T00:48:48;539.25;;;509.48;;
23009;SDS011;11671;49.990;8.028;2023-05-10T00:53:39;546.53;;;516.35;;
23009;SDS011;11671;49.990;8.028;2023-05-10T00:56:05;546.85;;;516.30;;
23009;SDS011;11671;49.990;8.028;2023-05-10T01:00:58;552.57;;;521.83;;
23009;SDS011;11671;49.990;8.028;2023-05-10T01:03:24;534.90;;;505.42;;
23009;SDS011;11671;49.990;8.028;2023-05-10T01:05:50;559.50;;;527.92;;
23009;SDS011;11671;49.990;8.028;2023-05-10T01:10:42;585.55;;;552.13;;
23009;SDS011;11671;49.990;8.028;2023-05-10T01:13:08;551.58;;;520.83;;
23009;SDS011;11671;49.990;8.028;2023-05-10T01:15:35;547.83;;;517.33;;
23009;SDS011;11671;49.990;8.028;2023-05-10T01:18:01;566.70;;;534.60;;
23009;SDS011;11671;49.990;8.028;2023-05-10T01:20:29;603.25;;;568.35;;
23009;SDS011;11671;49.990;8.028;2023-05-10T01:23:06;568.05;;;535.33;;
23009;SDS011;11671;49.990;8.028;2023-05-10T01:46:41;351.23;;;334.08;;
23009;SDS011;11671;49.990;8.028;2023-05-10T01:51:41;421.60;;;400.42;;
23009;SDS011;11671;49.990;8.028;2023-05-10T01:54:14;393.83;;;374.20;;
23009;SDS011;11671;49.990;8.028;2023-05-10T01:56:44;431.02;;;408.98;;
23009;SDS011;11671;49.990;8.028;2023-05-10T01:59:18;460.27;;;436.17;;
23009;SDS011;11671;49.990;8.028;2023-05-10T02:01:45;412.60;;;391.83;;
23009;SDS011;11671;49.990;8.028;2023-05-10T02:04:13;430.80;;;408.45;;
23009;SDS011;11671;49.990;8.028;2023-05-10T02:06:42;399.13;;;378.92;;
23009;SDS011;11671;49.990;8.028;2023-05-10T02:09:10;434.90;;;412.52;;
23009;SDS011;11671;49.990;8.028;2023-05-10T02:11:41;429.10;;;407.17;;
23009;SDS011;11671;49.990;8.028;2023-05-10T02:14:09;401.80;;;381.55;;
23009;SDS011;11671;49.990;8.028;2023-05-10T02:16:36;407.88;;;387.23;;
23009;SDS011;11671;49.990;8.028;2023-05-10T02:19:04;407.02;;;386.50;;
23009;SDS011;11671;49.990;8.028;2023-05-10T02:21:31;372.63;;;353.77;;
23009;SDS011;11671;49.990;8.028;2023-05-10T02:23:58;416.02;;;394.58;;
23009;SDS011;11671;49.990;8.028;2023-05-10T02:26:25;373.63;;;354.88;;
23009;SDS011;11671;49.990;8.028;2023-05-10T02:31:18;398.52;;;378.67;;
23009;SDS011;11671;49.990;8.028;2023-05-10T02:33:44;395.92;;;376.13;;
23009;SDS011;11671;49.990;8.028;2023-05-10T02:36:12;393.58;;;373.60;;
23009;SDS011;11671;49.990;8.028;2023-05-10T02:38:38;395.38;;;375.23;;
23009;SDS011;11671;49.990;8.028;2023-05-10T02:41:05;430.38;;;407.88;;
23009;SDS011;11671;49.990;8.028;2023-05-10T02:43:33;416.50;;;395.15;;
23009;SDS011;11671;49.990;8.028;2023-05-10T02:46:00;405.30;;;384.75;;
23009;SDS011;11671;49.990;8.028;2023-05-10T02:48:27;415.75;;;394.02;;
23009;SDS011;11671;49.990;8.028;2023-05-10T02:50:53;416.30;;;394.95;;
23009;SDS011;11671;49.990;8.028;2023-05-10T02:53:23;394.88;;;374.63;;
23009;SDS011;11671;49.990;8.028;2023-05-10T02:56:01;470.40;;;445.58;;
23009;SDS011;11671;49.990;8.028;2023-05-10T02:58:34;521.55;;;492.92;;
23009;SDS011;11671;49.990;8.028;2023-05-10T03:03:25;586.22;;;552.65;;
23009;SDS011;11671;49.990;8.028;2023-05-10T03:08:20;525.30;;;496.50;;
23009;SDS011;11671;49.990;8.028;2023-05-10T03:14:16;502.38;;;475.00;;
23009;SDS011;11671;49.990;8.028;2023-05-10T03:16:27;525.22;;;496.27;;
23009;SDS011;11671;49.990;8.028;2023-05-10T03:19:40;417.55;;;396.30;;
23009;SDS011;11671;49.990;8.028;2023-05-10T03:21:55;455.30;;;431.75;;
23009;SDS011;11671;49.990;8.028;2023-05-10T03:24:24;461.80;;;437.23;;
23009;SDS011;11671;49.990;8.028;2023-05-10T03:26:53;464.38;;;439.65;;
23009;SDS011;11671;49.990;8.028;2023-05-10T03:29:21;450.40;;;426.92;;
23009;SDS011;11671;49.990;8.028;2023-05-10T03:31:48;504.85;;;477.08;;
23009;SDS011;11671;49.990;8.028;2023-05-10T03:36:40;467.60;;;443.25;;
23009;SDS011;11671;49.990;8.028;2023-05-10T03:41:31;462.65;;;438.27;;
23009;SDS011;11671;49.990;8.028;2023-05-10T03:43:57;456.58;;;432.88;;
23009;SDS011;11671;49.990;8.028;2023-05-10T03:48:48;497.38;;;470.73;;
23009;SDS011;11671;49.990;8.028;2023-05-10T03:51:13;510.80;;;483.00;;
23009;SDS011;11671;49.990;8.028;2023-05-10T03:56:04;550.47;;;520.08;;
23009;SDS011;11671;49.990;8.028;2023-05-10T04:00:55;512.50;;;484.95;;
23009;SDS011;11671;49.990;8.028;2023-05-10T04:03:21;474.60;;;449.20;;
23009;SDS011;11671;49.990;8.028;2023-05-10T04:08:12;475.20;;;450.25;;
23009;SDS011;11671;49.990;8.028;2023-05-10T04:13:03;548.42;;;518.22;;
23009;SDS011;11671;49.990;8.028;2023-05-10T04:17:54;497.77;;;470.98;;
23009;SDS011;11671;49.990;8.028;2023-05-10T04:20:20;428.73;;;406.73;;
23009;SDS011;11671;49.990;8.028;2023-05-10T04:25:11;449.98;;;426.50;;
23009;SDS011;11671;49.990;8.028;2023-05-10T04:30:02;427.83;;;406.42;;
23009;SDS011;11671;49.990;8.028;2023-05-10T04:34:54;450.30;;;427.15;;
23009;SDS011;11671;49.990;8.028;2023-05-10T04:39:46;480.98;;;455.60;;
23009;SDS011;11671;49.990;8.028;2023-05-10T04:44:39;512.78;;;484.73;;
23009;SDS011;11671;49.990;8.028;2023-05-10T04:49:31;537.67;;;508.02;;
23009;SDS011;11671;49.990;8.028;2023-05-10T04:54:22;482.02;;;456.58;;
23009;SDS011;11671;49.990;8.028;2023-05-10T04:59:14;499.70;;;472.73;;
23009;SDS011;11671;49.990;8.028;2023-05-10T05:01:39;461.25;;;437.10;;
23009;SDS011;11671;49.990;8.028;2023-05-10T05:06:31;444.67;;;421.92;;
23009;SDS011;11671;49.990;8.028;2023-05-10T05:11:22;451.25;;;427.48;;
23009;SDS011;11671;49.990;8.028;2023-05-10T05:16:14;438.92;;;416.08;;
23009;SDS011;11671;49.990;8.028;2023-05-10T05:21:18;424.60;;;402.40;;
23009;SDS011;11671;49.990;8.028;2023-05-10T05:23:44;387.10;;;366.90;;
23009;SDS011;11671;49.990;8.028;2023-05-10T05:28:36;319.98;;;301.90;;
23009;SDS011;11671;49.990;8.028;2023-05-10T05:31:05;283.42;;;267.88;;
23009;SDS011;11671;49.990;8.028;2023-05-10T05:33:32;250.32;;;236.55;;
23009;SDS011;11671;49.990;8.028;2023-05-10T05:36:02;268.13;;;253.32;;
23009;SDS011;11671;49.990;8.028;2023-05-10T05:38:28;250.23;;;236.32;;
23009;SDS011;11671;49.990;8.028;2023-05-10T05:40:55;278.15;;;262.35;;
23009;SDS011;11671;49.990;8.028;2023-05-10T05:45:46;290.52;;;274.13;;
23009;SDS011;11671;49.990;8.028;2023-05-10T05:50:37;276.75;;;260.48;;
23009;SDS011;11671;49.990;8.028;2023-05-10T05:55:28;103.70;;;97.78;;
23009;SDS011;11671;49.990;8.028;2023-05-10T05:57:56;78.32;;;74.07;;
23009;SDS011;11671;49.990;8.028;2023-05-10T06:00:22;3.75;;;1.08;;
23009;SDS011;11671;49.990;8.028;2023-05-10T06:02:48;4.40;;;1.52;;
23009;SDS011;11671;49.990;8.028;2023-05-10T06:05:13;3.70;;;1.40;;
23009;SDS011;11671;49.990;8.028;2023-05-10T06:07:39;3.42;;;1.02;;
23009;SDS011;11671;49.990;8.028;2023-05-10T06:10:07;4.90;;;1.27;;
23009;SDS011;11671;49.990;8.028;2023-05-10T06:12:33;5.43;;;1.02;;
23009;SDS011;11671;49.990;8.028;2023-05-10T06:14:59;4.05;;;1.25;;
23009;SDS011;11671;49.990;8.028;2023-05-10T06:17:25;4.60;;;1.45;;
23009;SDS011;11671;49.990;8.028;2023-05-10T06:19:51;4.43;;;1.02;;
23009;SDS011;11671;49.990;8.028;2023-05-10T06:22:16;3.15;;;1.08;;
23009;SDS011;11671;49.990;8.028;2023-05-10T06:24:42;3.70;;;1.45;;
23009;SDS011;11671;49.990;8.028;2023-05-10T06:27:08;5.05;;;1.08;;
23009;SDS011;11671;49.990;8.028;2023-05-10T06:29:34;4.45;;;1.35;;
23009;SDS011;11671;49.990;8.028;2023-05-10T06:31:59;3.30;;;0.82;;
23009;SDS011;11671;49.990;8.028;2023-05-10T06:34:25;3.25;;;1.00;;
23009;SDS011;11671;49.990;8.028;2023-05-10T06:36:51;1.95;;;0.73;;
23009;SDS011;11671;49.990;8.028;2023-05-10T06:39:17;4.22;;;1.30;;
23009;SDS011;11671;49.990;8.028;2023-05-10T06:41:42;5.03;;;0.85;;
23009;SDS011;11671;49.990;8.028;2023-05-10T06:44:08;4.22;;;1.55;;
23009;SDS011;11671;49.990;8.028;2023-05-10T06:46:34;3.78;;;0.98;;
23009;SDS011;11671;49.990;8.028;2023-05-10T06:49:00;4.35;;;1.00;;
23009;SDS011;11671;49.990;8.028;2023-05-10T06:51:25;2.75;;;1.20;;
23009;SDS011;11671;49.990;8.028;2023-05-10T06:53:51;2.95;;;1.08;;
23009;SDS011;11671;49.990;8.028;2023-05-10T06:56:16;3.75;;;0.90;;
23009;SDS011;11671;49.990;8.028;2023-05-10T06:58:42;5.25;;;1.25;;
23009;SDS011;11671;49.990;8.028;2023-05-10T07:01:07;4.85;;;1.00;;
23009;SDS011;11671;49.990;8.028;2023-05-10T07:03:33;4.00;;;1.13;;
23009;SDS011;11671;49.990;8.028;2023-05-10T07:06:02;2.45;;;1.20;;
23009;SDS011;11671;49.990;8.028;2023-05-10T07:08:29;2.67;;;1.38;;
23009;SDS011;11671;49.990;8.028;2023-05-10T07:11:00;7.43;;;5.13;;
23009;SDS011;11671;49.990;8.028;2023-05-10T07:13:30;61.88;;;58.47;;
23009;SDS011;11671;49.990;8.028;2023-05-10T07:15:56;85.30;;;80.90;;
23009;SDS011;11671;49.990;8.028;2023-05-10T07:18:22;68.53;;;64.95;;
23009;SDS011;11671;49.990;8.028;2023-05-10T07:20:48;27.52;;;25.77;;
23009;SDS011;11671;49.990;8.028;2023-05-10T07:23:13;10.82;;;9.68;;
23009;SDS011;11671;49.990;8.028;2023-05-10T07:25:39;39.92;;;37.55;;
23009;SDS011;11671;49.990;8.028;2023-05-10T07:28:05;20.65;;;19.45;;
23009;SDS011;11671;49.990;8.028;2023-05-10T07:30:30;41.30;;;39.25;;
23009;SDS011;11671;49.990;8.028;2023-05-10T07:32:56;43.35;;;41.10;;
23009;SDS011;11671;49.990;8.028;2023-05-10T07:35:21;45.72;;;43.28;;
23009;SDS011;11671;49.990;8.028;2023-05-10T07:37:47;2.50;;;1.55;;
23009;SDS011;11671;49.990;8.028;2023-05-10T07:40:12;4.20;;;1.10;;
23009;SDS011;11671;49.990;8.028;2023-05-10T07:42:38;5.53;;;1.60;;
23009;SDS011;11671;49.990;8.028;2023-05-10T07:45:04;5.90;;;1.40;;
23009;SDS011;11671;49.990;8.028;2023-05-10T07:47:30;6.32;;;2.13;;
23009;SDS011;11671;49.990;8.028;2023-05-10T07:52:21;3.38;;;1.20;;
23009;SDS011;11671;49.990;8.028;2023-05-10T07:54:46;4.25;;;1.38;;
23009;SDS011;11671;49.990;8.028;2023-05-10T07:57:12;3.20;;;1.52;;
23009;SDS011;11671;49.990;8.028;2023-05-10T07:59:40;2.85;;;1.20;;
23009;SDS011;11671;49.990;8.028;2023-05-10T08:04:31;3.67;;;1.20;;
23009;SDS011;11671;49.990;8.028;2023-05-10T08:09:22;5.65;;;1.17;;
23009;SDS011;11671;49.990;8.028;2023-05-10T08:11:49;9.40;;;1.52;;
23009;SDS011;11671;49.990;8.028;2023-05-10T08:14:15;3.35;;;1.40;;
23009;SDS011;11671;49.990;8.028;2023-05-10T08:19:07;3.28;;;0.80;;
23009;SDS011;11671;49.990;8.028;2023-05-10T08:23:58;4.50;;;0.98;;
23009;SDS011;11671;49.990;8.028;2023-05-10T08:28:50;2.13;;;0.90;;
23009;SDS011;11671;49.990;8.028;2023-05-10T08:33:41;2.22;;;0.73;;
23009;SDS011;11671;49.990;8.028;2023-05-10T08:38:32;6.88;;;0.70;;
23009;SDS011;11671;49.990;8.028;2023-05-10T08:43:26;2.70;;;0.88;;
23009;SDS011;11671;49.990;8.028;2023-05-10T08:45:54;2.45;;;0.93;;
23009;SDS011;11671;49.990;8.028;2023-05-10T08:48:22;0.80;;;0.40;;
23009;SDS011;11671;49.990;8.028;2023-05-10T08:50:49;1.50;;;0.60;;
23009;SDS011;11671;49.990;8.028;2023-05-10T08:53:19;1.17;;;0.50;;
23009;SDS011;11671;49.990;8.028;2023-05-10T08:55:46;4.18;;;1.33;;
23009;SDS011;11671;49.990;8.028;2023-05-10T09:00:37;1.70;;;0.77;;
23009;SDS011;11671;49.990;8.028;2023-05-10T09:05:29;2.28;;;1.02;;
23009;SDS011;11671;49.990;8.028;2023-05-10T09:10:20;1.95;;;0.65;;
23009;SDS011;11671;49.990;8.028;2023-05-10T09:12:47;3.28;;;0.70;;
23009;SDS011;11671;49.990;8.028;2023-05-10T09:15:14;2.28;;;0.60;;
23009;SDS011;11671;49.990;8.028;2023-05-10T09:17:41;1.65;;;0.60;;
23009;SDS011;11671;49.990;8.028;2023-05-10T09:20:08;0.98;;;0.57;;
23009;SDS011;11671;49.990;8.028;2023-05-10T09:25:10;2.88;;;0.75;;
23009;SDS011;11671;49.990;8.028;2023-05-10T09:27:37;1.38;;;0.45;;
23009;SDS011;11671;49.990;8.028;2023-05-10T09:30:04;2.25;;;0.50;;
23009;SDS011;11671;49.990;8.028;2023-05-10T09:32:38;0.80;;;0.60;;
23009;SDS011;11671;49.990;8.028;2023-05-10T09:37:41;1.77;;;0.50;;
23009;SDS011;11671;49.990;8.028;2023-05-10T09:40:11;0.80;;;0.30;;
23009;SDS011;11671;49.990;8.028;2023-05-10T09:42:38;0.40;;;0.20;;
23009;SDS011;11671;49.990;8.028;2023-05-10T09:45:05;0.57;;;0.30;;
23009;SDS011;11671;49.990;8.028;2023-05-10T09:47:32;2.92;;;0.45;;
23009;SDS011;11671;49.990;8.028;2023-05-10T09:49:59;3.92;;;1.10;;
23009;SDS011;11671;49.990;8.028;2023-05-10T09:52:51;0.68;;;0.28;;
23009;SDS011;11671;49.990;8.028;2023-05-10T09:55:16;3.65;;;0.52;;
23009;SDS011;11671;49.990;8.028;2023-05-10T09:57:46;1.15;;;0.75;;
23009;SDS011;11671;49.990;8.028;2023-05-10T10:00:22;9.02;;;0.57;;
23009;SDS011;11671;49.990;8.028;2023-05-10T10:02:53;1.60;;;0.55;;
23009;SDS011;11671;49.990;8.028;2023-05-10T10:05:20;1.58;;;0.80;;
23009;SDS011;11671;49.990;8.028;2023-05-10T10:10:12;1.35;;;0.30;;
23009;SDS011;11671;49.990;8.028;2023-05-10T10:12:38;1.30;;;0.30;;
23009;SDS011;11671;49.990;8.028;2023-05-10T10:15:06;3.53;;;0.30;;
23009;SDS011;11671;49.990;8.028;2023-05-10T10:17:32;1.35;;;0.28;;
23009;SDS011;11671;49.990;8.028;2023-05-10T10:20:02;0.98;;;0.32;;
23009;SDS011;11671;49.990;8.028;2023-05-10T10:22:28;2.33;;;0.45;;
23009;SDS011;11671;49.990;8.028;2023-05-10T10:27:21;0.70;;;0.25;;
23009;SDS011;11671;49.990;8.028;2023-05-10T10:35:24;1.27;;;0.40;;
23009;SDS011;11671;49.990;8.028;2023-05-10T10:42:51;0.88;;;0.30;;
23009;SDS011;11671;49.990;8.028;2023-05-10T10:45:18;2.38;;;0.38;;
23009;SDS011;11671;49.990;8.028;2023-05-10T10:47:44;0.50;;;0.30;;
23009;SDS011;11671;49.990;8.028;2023-05-10T10:50:10;0.50;;;0.30;;
23009;SDS011;11671;49.990;8.028;2023-05-10T10:52:41;1.48;;;0.30;;
23009;SDS011;11671;49.990;8.028;2023-05-10T10:55:11;3.35;;;0.38;;
23009;SDS011;11671;49.990;8.028;2023-05-10T10:57:42;0.20;;;0.20;;
23009;SDS011;11671;49.990;8.028;2023-05-10T11:05:53;3.17;;;0.28;;
23009;SDS011;11671;49.990;8.028;2023-05-10T11:08:30;2.75;;;0.40;;
23009;SDS011;11671;49.990;8.028;2023-05-10T11:13:38;9.90;;;6.68;;
23009;SDS011;11671;49.990;8.028;2023-05-10T11:16:17;8.98;;;3.70;;
23009;SDS011;11671;49.990;8.028;2023-05-10T11:19:30;8.73;;;6.68;;
23009;SDS011;11671;49.990;8.028;2023-05-10T11:21:47;5.35;;;3.50;;
23009;SDS011;11671;49.990;8.028;2023-05-10T11:24:15;3.25;;;1.50;;
23009;SDS011;11671;49.990;8.028;2023-05-10T11:26:42;1.80;;;1.10;;
23009;SDS011;11671;49.990;8.028;2023-05-10T11:29:08;1.42;;;0.40;;
23009;SDS011;11671;49.990;8.028;2023-05-10T11:31:34;2.53;;;0.50;;
23009;SDS011;11671;49.990;8.028;2023-05-10T11:34:06;4.75;;;0.70;;
23009;SDS011;11671;49.990;8.028;2023-05-10T11:36:33;3.72;;;0.43;;
23009;SDS011;11671;49.990;8.028;2023-05-10T11:39:01;2.03;;;0.35;;
23009;SDS011;11671;49.990;8.028;2023-05-10T11:41:28;1.75;;;0.40;;
23009;SDS011;11671;49.990;8.028;2023-05-10T11:43:55;1.52;;;0.20;;
23009;SDS011;11671;49.990;8.028;2023-05-10T11:46:22;1.38;;;0.20;;
23009;SDS011;11671;49.990;8.028;2023-05-10T11:48:50;1.45;;;0.35;;
23009;SDS011;11671;49.990;8.028;2023-05-10T11:51:20;1.02;;;0.25;;
23009;SDS011;11671;49.990;8.028;2023-05-10T11:53:47;1.02;;;0.30;;
23009;SDS011;11671;49.990;8.028;2023-05-10T11:56:14;1.65;;;0.28;;
23009;SDS011;11671;49.990;8.028;2023-05-10T11:58:39;2.53;;;0.40;;
23009;SDS011;11671;49.990;8.028;2023-05-10T12:01:05;3.40;;;0.40;;
23009;SDS011;11671;49.990;8.028;2023-05-10T12:03:32;1.88;;;0.30;;
23009;SDS011;11671;49.990;8.028;2023-05-10T12:05:59;0.82;;;0.32;;
23009;SDS011;11671;49.990;8.028;2023-05-10T12:08:27;1.00;;;0.65;;
23009;SDS011;11671;49.990;8.028;2023-05-10T12:11:03;0.20;;;0.10;;
23009;SDS011;11671;49.990;8.028;2023-05-10T12:13:30;2.22;;;0.68;;
23009;SDS011;11671;49.990;8.028;2023-05-10T12:15:59;0.70;;;0.10;;
23009;SDS011;11671;49.990;8.028;2023-05-10T12:18:25;1.85;;;0.30;;
23009;SDS011;11671;49.990;8.028;2023-05-10T12:20:54;1.52;;;0.10;;
23009;SDS011;11671;49.990;8.028;2023-05-10T12:23:27;2.05;;;0.25;;
23009;SDS011;11671;49.990;8.028;2023-05-10T12:25:53;1.08;;;0.20;;
23009;SDS011;11671;49.990;8.028;2023-05-10T12:28:26;0.28;;;0.10;;
23009;SDS011;11671;49.990;8.028;2023-05-10T12:30:55;0.68;;;0.10;;
23009;SDS011;11671;49.990;8.028;2023-05-10T12:33:23;0.63;;;0.17;;
23009;SDS011;11671;49.990;8.028;2023-05-10T12:38:34;0.45;;;0.10;;
23009;SDS011;11671;49.990;8.028;2023-05-10T12:41:04;2.35;;;0.20;;
23009;SDS011;11671;49.990;8.028;2023-05-10T12:43:31;0.22;;;0.20;;
23009;SDS011;11671;49.990;8.028;2023-05-10T12:45:57;0.68;;;0.20;;
23009;SDS011;11671;49.990;8.028;2023-05-10T12:50:48;1.10;;;0.20;;
23009;SDS011;11671;49.990;8.028;2023-05-10T12:53:14;2.08;;;0.35;;
23009;SDS011;11671;49.990;8.028;2023-05-10T12:55:41;0.32;;;0.20;;
23009;SDS011;11671;49.990;8.028;2023-05-10T12:58:07;1.67;;;0.20;;
23009;SDS011;11671;49.990;8.028;2023-05-10T13:00:32;1.33;;;0.30;;
23009;SDS011;11671;49.990;8.028;2023-05-10T13:02:58;5.50;;;1.67;;
23009;SDS011;11671;49.990;8.028;2023-05-10T13:07:49;2.67;;;1.10;;
23009;SDS011;11671;49.990;8.028;2023-05-10T13:10:15;3.63;;;0.30;;
23009;SDS011;11671;49.990;8.028;2023-05-10T13:12:41;1.75;;;0.20;;
23009;SDS011;11671;49.990;8.028;2023-05-10T13:15:07;3.67;;;1.85;;
23009;SDS011;11671;49.990;8.028;2023-05-10T13:17:32;0.95;;;0.30;;
23009;SDS011;11671;49.990;8.028;2023-05-10T13:19:58;2.33;;;0.40;;
23009;SDS011;11671;49.990;8.028;2023-05-10T13:22:24;0.68;;;0.28;;
23009;SDS011;11671;49.990;8.028;2023-05-10T13:24:50;1.13;;;0.22;;
23009;SDS011;11671;49.990;8.028;2023-05-10T13:27:15;1.60;;;0.52;;
23009;SDS011;11671;49.990;8.028;2023-05-10T13:29:41;0.50;;;0.30;;
23009;SDS011;11671;49.990;8.028;2023-05-10T13:32:07;1.33;;;0.50;;
23009;SDS011;11671;49.990;8.028;2023-05-10T13:34:32;3.65;;;0.40;;
23009;SDS011;11671;49.990;8.028;2023-05-10T13:36:58;0.70;;;0.38;;
23009;SDS011;11671;49.990;8.028;2023-05-10T13:39:24;0.82;;;0.45;;
23009;SDS011;11671;49.990;8.028;2023-05-10T13:41:49;1.50;;;0.40;;
23009;SDS011;11671;49.990;8.028;2023-05-10T13:44:15;2.45;;;0.50;;
23009;SDS011;11671;49.990;8.028;2023-05-10T13:46:41;1.65;;;0.47;;
23009;SDS011;11671;49.990;8.028;2023-05-10T13:49:10;1.70;;;0.43;;
23009;SDS011;11671;49.990;8.028;2023-05-10T13:51:36;1.45;;;0.60;;
23009;SDS011;11671;49.990;8.028;2023-05-10T13:54:02;0.93;;;0.32;;
23009;SDS011;11671;49.990;8.028;2023-05-10T13:56:28;1.38;;;0.50;;
23009;SDS011;11671;49.990;8.028;2023-05-10T13:58:53;2.08;;;0.50;;
23009;SDS011;11671;49.990;8.028;2023-05-10T14:01:19;0.57;;;0.38;;
23009;SDS011;11671;49.990;8.028;2023-05-10T14:03:45;1.33;;;0.40;;
23009;SDS011;11671;49.990;8.028;2023-05-10T14:06:11;1.00;;;0.40;;
23009;SDS011;11671;49.990;8.028;2023-05-10T14:08:36;5.47;;;0.65;;
23009;SDS011;11671;49.990;8.028;2023-05-10T14:11:02;1.67;;;0.30;;
23009;SDS011;11671;49.990;8.028;2023-05-10T14:13:28;4.78;;;0.73;;
23009;SDS011;11671;49.990;8.028;2023-05-10T14:15:53;2.17;;;0.40;;
23009;SDS011;11671;49.990;8.028;2023-05-10T14:18:20;2.28;;;0.80;;
23009;SDS011;11671;49.990;8.028;2023-05-10T14:20:46;2.60;;;0.57;;
23009;SDS011;11671;49.990;8.028;2023-05-10T14:23:12;2.22;;;0.70;;
23009;SDS011;11671;49.990;8.028;2023-05-10T14:25:38;4.55;;;0.65;;
23009;SDS011;11671;49.990;8.028;2023-05-10T14:28:06;1.92;;;0.40;;
23009;SDS011;11671;49.990;8.028;2023-05-10T14:30:32;2.58;;;0.70;;
23009;SDS011;11671;49.990;8.028;2023-05-10T14:32:59;2.95;;;0.63;;
23009;SDS011;11671;49.990;8.028;2023-05-10T14:35:26;2.30;;;0.70;;
23009;SDS011;11671;49.990;8.028;2023-05-10T14:37:52;4.32;;;0.47;;
23009;SDS011;11671;49.990;8.028;2023-05-10T14:40:18;3.75;;;0.70;;
23009;SDS011;11671;49.990;8.028;2023-05-10T14:42:44;1.52;;;0.52;;
23009;SDS011;11671;49.990;8.028;2023-05-10T14:45:10;1.90;;;0.70;;
23009;SDS011;11671;49.990;8.028;2023-05-10T14:47:36;2.45;;;0.50;;
23009;SDS011;11671;49.990;8.028;2023-05-10T14:50:02;2.47;;;0.77;;
23009;SDS011;11671;49.990;8.028;2023-05-10T14:52:28;2.08;;;0.57;;
23009;SDS011;11671;49.990;8.028;2023-05-10T14:54:54;2.03;;;0.60;;
23009;SDS011;11671;49.990;8.028;2023-05-10T14:57:20;4.32;;;0.93;;
23009;SDS011;11671;49.990;8.028;2023-05-10T14:59:45;5.10;;;0.93;;
23009;SDS011;11671;49.990;8.028;2023-05-10T15:02:11;2.25;;;0.63;;
23009;SDS011;11671;49.990;8.028;2023-05-10T15:04:37;5.32;;;0.70;;
23009;SDS011;11671;49.990;8.028;2023-05-10T15:07:03;2.63;;;0.47;;
23009;SDS011;11671;49.990;8.028;2023-05-10T15:09:29;6.53;;;0.60;;
23009;SDS011;11671;49.990;8.028;2023-05-10T15:11:55;4.78;;;0.47;;
23009;SDS011;11671;49.990;8.028;2023-05-10T15:14:21;4.70;;;0.80;;
23009;SDS011;11671;49.990;8.028;2023-05-10T15:16:47;3.55;;;1.02;;
23009;SDS011;11671;49.990;8.028;2023-05-10T15:19:13;6.15;;;0.70;;
23009;SDS011;11671;49.990;8.028;2023-05-10T15:21:38;2.80;;;0.75;;
23009;SDS011;11671;49.990;8.028;2023-05-10T15:24:06;2.78;;;0.47;;
23009;SDS011;11671;49.990;8.028;2023-05-10T15:26:32;3.28;;;0.68;;
23009;SDS011;11671;49.990;8.028;2023-05-10T15:28:58;2.58;;;0.73;;
23009;SDS011;11671;49.990;8.028;2023-05-10T15:31:24;3.42;;;0.40;;
23009;SDS011;11671;49.990;8.028;2023-05-10T15:33:49;5.03;;;0.70;;
23009;SDS011;11671;49.990;8.028;2023-05-10T15:36:15;6.13;;;0.90;;
23009;SDS011;11671;49.990;8.028;2023-05-10T15:38:42;1.23;;;0.52;;
23009;SDS011;11671;49.990;8.028;2023-05-10T15:43:34;2.17;;;0.50;;
23009;SDS011;11671;49.990;8.028;2023-05-10T15:45:59;3.72;;;0.70;;
23009;SDS011;11671;49.990;8.028;2023-05-10T15:48:25;5.70;;;0.57;;
23009;SDS011;11671;49.990;8.028;2023-05-10T15:50:50;4.13;;;0.57;;
23009;SDS011;11671;49.990;8.028;2023-05-10T15:53:16;3.00;;;0.47;;
23009;SDS011;11671;49.990;8.028;2023-05-10T15:55:42;3.80;;;0.60;;
23009;SDS011;11671;49.990;8.028;2023-05-10T15:58:07;7.60;;;0.77;;
23009;SDS011;11671;49.990;8.028;2023-05-10T16:02:58;1.58;;;0.40;;
23009;SDS011;11671;49.990;8.028;2023-05-10T16:07:53;2.72;;;1.02;;
23009;SDS011;11671;49.990;8.028;2023-05-10T16:12:45;1.65;;;0.43;;
23009;SDS011;11671;49.990;8.028;2023-05-10T16:15:11;3.83;;;0.52;;
23009;SDS011;11671;49.990;8.028;2023-05-10T16:20:02;3.28;;;0.45;;
23009;SDS011;11671;49.990;8.028;2023-05-10T16:22:28;0.95;;;0.57;;
23009;SDS011;11671;49.990;8.028;2023-05-10T16:24:55;1.75;;;0.70;;
23009;SDS011;11671;49.990;8.028;2023-05-10T16:27:21;1.00;;;0.30;;
23009;SDS011;11671;49.990;8.028;2023-05-10T16:32:12;1.98;;;0.60;;
23009;SDS011;11671;49.990;8.028;2023-05-10T16:37:04;4.05;;;0.93;;
23009;SDS011;11671;49.990;8.028;2023-05-10T16:41:55;2.60;;;0.80;;
23009;SDS011;11671;49.990;8.028;2023-05-10T16:44:21;3.90;;;0.50;;
23009;SDS011;11671;49.990;8.028;2023-05-10T16:49:12;1.77;;;0.57;;
23009;SDS011;11671;49.990;8.028;2023-05-10T16:51:38;2.08;;;0.40;;
23009;SDS011;11671;49.990;8.028;2023-05-10T16:54:04;1.77;;;0.63;;
23009;SDS011;11671;49.990;8.028;2023-05-10T16:58:56;4.57;;;0.65;;
23009;SDS011;11671;49.990;8.028;2023-05-10T17:01:21;2.15;;;0.43;;
23009;SDS011;11671;49.990;8.028;2023-05-10T17:06:13;3.30;;;0.52;;
23009;SDS011;11671;49.990;8.028;2023-05-10T17:11:04;4.75;;;0.77;;
23009;SDS011;11671;49.990;8.028;2023-05-10T17:13:30;1.73;;;0.60;;
23009;SDS011;11671;49.990;8.028;2023-05-10T17:15:55;4.05;;;0.85;;
23009;SDS011;11671;49.990;8.028;2023-05-10T17:20:47;0.98;;;0.50;;
23009;SDS011;11671;49.990;8.028;2023-05-10T17:25:38;2.15;;;0.50;;
23009;SDS011;11671;49.990;8.028;2023-05-10T17:28:05;2.10;;;0.40;;
23009;SDS011;11671;49.990;8.028;2023-05-10T17:32:57;2.35;;;0.50;;
23009;SDS011;11671;49.990;8.028;2023-05-10T17:35:23;2.47;;;0.40;;
23009;SDS011;11671;49.990;8.028;2023-05-10T17:40:14;1.92;;;0.40;;
23009;SDS011;11671;49.990;8.028;2023-05-10T17:42:40;2.15;;;0.52;;
23009;SDS011;11671;49.990;8.028;2023-05-10T17:47:32;2.72;;;0.40;;
23009;SDS011;11671;49.990;8.028;2023-05-10T17:52:23;3.08;;;0.55;;
23009;SDS011;11671;49.990;8.028;2023-05-10T17:57:15;0.57;;;0.50;;
23009;SDS011;11671;49.990;8.028;2023-05-10T18:02:06;0.95;;;0.28;;
23009;SDS011;11671;49.990;8.028;2023-05-10T18:04:32;3.22;;;0.45;;
23009;SDS011;11671;49.990;8.028;2023-05-10T18:09:28;2.08;;;0.55;;
23009;SDS011;11671;49.990;8.028;2023-05-10T18:11:53;1.52;;;0.35;;
23009;SDS011;11671;49.990;8.028;2023-05-10T18:16:46;2.22;;;0.80;;
23009;SDS011;11671;49.990;8.028;2023-05-10T18:21:37;4.22;;;0.70;;
23009;SDS011;11671;49.990;8.028;2023-05-10T18:26:29;2.35;;;0.68;;
23009;SDS011;11671;49.990;8.028;2023-05-10T18:31:20;1.50;;;0.75;;
23009;SDS011;11671;49.990;8.028;2023-05-10T18:36:11;2.17;;;1.45;;